createdAt,value
2022-09-05T00:00:19.411Z,3.47
2022-09-05T00:03:17.190Z,3.70
2022-09-05T00:06:02.223Z,3.90
2022-09-05T00:08:44.632Z,4.03
2022-09-05T00:11:40.810Z,3.90
2022-09-05T00:15:14.361Z,4.37
2022-09-05T00:17:48.750Z,3.77
2022-09-05T00:24:19.902Z,4.27
2022-09-05T00:24:30.500Z,3.90
2022-09-05T00:26:38.246Z,3.70
2022-09-05T00:31:05.480Z,4.10
2022-09-05T00:32:46.947Z,3.80
2022-09-05T00:35:35.609Z,4.17
2022-09-05T00:38:15.142Z,3.90
2022-09-05T00:40:47.005Z,3.63
2022-09-05T00:43:20.466Z,3.87
2022-09-05T00:45:58.352Z,3.77
2022-09-05T00:48:36.774Z,4.23
2022-09-05T00:51:21.002Z,3.97
2022-09-05T00:54:32.664Z,3.83
2022-09-05T00:57:40.446Z,3.63
2022-09-05T01:00:18.147Z,3.77
2022-09-05T01:03:10.091Z,3.63
2022-09-05T01:06:03.311Z,3.50
2022-09-05T01:09:10.794Z,3.43
2022-09-05T01:11:51.692Z,3.20
2022-09-05T01:14:40.431Z,4.20
2022-09-05T01:17:39.779Z,3.60
2022-09-05T01:20:38.296Z,4.10
2022-09-05T01:23:37.109Z,4.47
2022-09-05T01:26:36.167Z,4.07
2022-09-05T01:29:19.405Z,3.77
2022-09-05T01:32:10.536Z,3.77
2022-09-05T01:34:55.729Z,3.70
2022-09-05T01:37:34.331Z,3.50
2022-09-05T01:40:17.648Z,4.60
2022-09-05T01:43:05.884Z,4.30
2022-09-05T01:45:50.737Z,4.60
2022-09-05T01:48:33.879Z,3.97
2022-09-05T01:51:28.268Z,4.10
2022-09-05T01:54:24.105Z,4.50
2022-09-05T01:57:09.067Z,4.20
2022-09-05T01:59:47.302Z,3.97
2022-09-05T02:02:33.511Z,4.70
2022-09-05T02:05:51.107Z,4.67
2022-09-05T02:08:36.132Z,4.23
2022-09-05T02:11:08.184Z,4.50
2022-09-05T02:14:00.648Z,4.10
2022-09-05T02:16:41.665Z,4.60
2022-09-05T02:19:19.040Z,4.43
2022-09-05T02:22:00.189Z,3.93
2022-09-05T02:24:39.599Z,4.47
2022-09-05T02:27:53.588Z,3.87
2022-09-05T02:30:14.862Z,3.77
2022-09-05T02:32:59.719Z,4.23
2022-09-05T02:35:41.016Z,4.53
2022-09-05T02:39:09.133Z,4.50
2022-09-05T02:45:17.257Z,4.20
2022-09-05T02:45:19.648Z,3.80
2022-09-05T02:47:06.009Z,3.83
2022-09-05T02:52:30.676Z,4.20
2022-09-05T02:57:29.248Z,3.80
2022-09-05T02:57:33.268Z,3.87
2022-09-05T02:59:09.532Z,3.37
2022-09-05T03:02:09.341Z,3.80
2022-09-05T03:05:05.021Z,3.93
2022-09-05T03:08:07.493Z,3.70
2022-09-05T03:11:37.711Z,3.87
2022-09-05T03:14:58.822Z,3.37
2022-09-05T03:18:22.740Z,3.83
2022-09-05T03:21:38.304Z,3.70
2022-09-05T03:25:02.493Z,3.43
2022-09-05T03:28:29.801Z,5.37
2022-09-05T03:31:23.864Z,4.00
2022-09-05T03:34:28.470Z,3.97
2022-09-05T03:37:44.040Z,3.60
2022-09-05T03:40:51.492Z,4.13
2022-09-05T03:43:55.218Z,3.30
2022-09-05T03:46:39.856Z,4.30
2022-09-05T03:55:45.402Z,3.73
2022-09-05T03:57:12.481Z,3.57
2022-09-05T03:57:24.260Z,4.10
2022-09-05T03:59:51.888Z,3.70
2022-09-05T04:06:31.411Z,3.60
2022-09-05T04:08:11.330Z,3.50
2022-09-05T04:08:29.747Z,3.30
2022-09-05T04:11:10.682Z,4.17
2022-09-05T04:13:47.201Z,3.90
2022-09-05T04:16:19.711Z,3.30
2022-09-05T04:18:54.107Z,3.50
2022-09-05T04:21:28.089Z,3.27
2022-09-05T04:24:07.606Z,3.90
2022-09-05T04:27:21.482Z,4.20
2022-09-05T04:30:01.762Z,6.00
2022-09-05T04:32:47.150Z,6.43
2022-09-05T04:35:31.235Z,5.97
2022-09-05T04:38:12.480Z,5.70
2022-09-05T04:40:51.786Z,7.03
2022-09-05T04:43:32.478Z,6.17
2022-09-05T04:46:18.847Z,6.00
2022-09-05T04:48:58.182Z,6.20
2022-09-05T04:52:00.839Z,6.00
2022-09-05T04:54:42.725Z,6.00
2022-09-05T04:57:21.854Z,5.50
2022-09-05T05:04:23.718Z,5.80
2022-09-05T05:06:12.390Z,4.57
2022-09-05T05:06:12.391Z,4.60
2022-09-05T05:08:51.792Z,4.53
2022-09-05T05:17:54.474Z,5.10
2022-09-05T05:18:02.615Z,4.83
2022-09-05T05:18:10.905Z,5.50
2022-09-05T05:20:42.224Z,5.00
2022-09-05T05:23:17.014Z,4.00
2022-09-05T05:25:51.521Z,4.57
2022-09-05T05:28:28.598Z,4.87
2022-09-05T05:31:01.467Z,4.33
2022-09-05T05:33:35.831Z,6.23
2022-09-05T05:36:08.528Z,5.33
2022-09-05T05:38:46.573Z,4.80
2022-09-05T05:41:21.566Z,5.13
2022-09-05T05:43:51.371Z,4.47
2022-09-05T05:46:31.969Z,4.60
2022-09-05T05:49:31.983Z,4.53
2022-09-05T05:52:39.056Z,5.13
2022-09-05T05:55:51.465Z,4.10
2022-09-05T05:58:37.765Z,4.43
2022-09-05T06:02:09.642Z,4.27
2022-09-05T06:05:17.834Z,4.00
2022-09-05T06:10:00.424Z,4.20
2022-09-05T06:15:00.161Z,4.10
2022-09-05T06:15:10.698Z,4.70
2022-09-05T06:18:16.138Z,4.27
2022-09-05T06:22:10.393Z,4.40
2022-09-05T06:25:27.252Z,4.67
2022-09-05T06:28:20.080Z,3.50
2022-09-05T06:31:30.764Z,3.50
2022-09-05T06:34:33.297Z,4.40
2022-09-05T06:37:14.055Z,4.00
2022-09-05T06:40:04.675Z,4.00
2022-09-05T06:42:51.416Z,4.03
2022-09-05T06:45:38.277Z,4.40
2022-09-05T06:48:24.862Z,5.77
2022-09-05T06:51:44.896Z,5.37
2022-09-05T06:54:59.894Z,4.33
2022-09-05T06:58:15.257Z,3.53
2022-09-05T07:00:48.605Z,4.43
2022-09-05T07:03:40.179Z,3.70
2022-09-05T07:06:19.664Z,3.57
2022-09-05T07:09:02.942Z,3.40
2022-09-05T07:11:42.643Z,3.40
2022-09-05T07:14:22.235Z,3.10
2022-09-05T07:16:55.295Z,3.30
2022-09-05T07:19:31.657Z,3.23
2022-09-05T07:22:29.356Z,4.10
2022-09-05T07:25:09.429Z,3.00
2022-09-05T07:28:26.845Z,2.90
2022-09-05T07:30:36.992Z,2.97
2022-09-05T07:33:06.256Z,3.30
2022-09-05T07:35:42.001Z,3.03
2022-09-05T07:38:18.683Z,4.03
2022-09-05T07:40:53.515Z,3.17
2022-09-05T07:43:27.617Z,2.50
2022-09-05T07:46:13.348Z,3.07
2022-09-05T07:48:47.388Z,3.07
2022-09-05T07:56:48.824Z,3.10
2022-09-05T07:57:08.250Z,2.90
2022-09-05T07:57:30.009Z,2.87
2022-09-05T08:00:26.057Z,3.13
2022-09-05T08:03:02.009Z,2.63
2022-09-05T08:05:40.331Z,2.60
2022-09-05T08:08:13.198Z,3.00
2022-09-05T08:11:24.253Z,2.70
2022-09-05T08:14:02.364Z,2.50
2022-09-05T08:16:46.266Z,2.67
2022-09-05T08:19:54.368Z,3.20
2022-09-05T08:22:31.967Z,2.97
2022-09-05T08:25:05.369Z,2.60
2022-09-05T08:27:51.956Z,2.87
2022-09-05T08:30:25.550Z,2.70
2022-09-05T08:33:10.831Z,2.87
2022-09-05T08:35:45.868Z,2.90
2022-09-05T08:38:15.838Z,3.10
2022-09-05T08:40:56.115Z,3.43
2022-09-05T08:46:35.531Z,3.27
2022-09-05T08:46:42.190Z,3.10
2022-09-05T08:50:04.889Z,3.40
2022-09-05T08:52:52.126Z,3.13
2022-09-05T08:55:36.650Z,3.30
2022-09-05T08:58:37.584Z,2.97
2022-09-05T09:01:19.295Z,2.63
2022-09-05T09:04:11.440Z,2.53
2022-09-05T09:07:32.327Z,3.23
2022-09-05T09:10:09.817Z,3.43
2022-09-05T09:13:22.536Z,2.73
2022-09-05T09:16:04.701Z,2.90
2022-09-05T09:19:09.680Z,3.03
2022-09-05T09:21:43.843Z,3.70
2022-09-05T09:24:32.037Z,2.80
2022-09-05T09:27:07.759Z,2.70
2022-09-05T09:29:41.526Z,2.63
2022-09-05T09:32:14.259Z,2.73
2022-09-05T09:34:56.582Z,2.40
2022-09-05T09:38:14.828Z,2.73
2022-09-05T09:41:14.795Z,3.33
2022-09-05T09:44:53.465Z,3.23
2022-09-05T09:47:46.066Z,2.83
2022-09-05T09:50:27.662Z,3.13
2022-09-05T09:53:22.038Z,2.70
2022-09-05T09:56:41.866Z,2.23
2022-09-05T09:59:35.448Z,2.83
2022-09-05T10:04:51.305Z,2.23
2022-09-05T10:10:45.153Z,3.93
2022-09-05T10:10:49.902Z,11.30
2022-09-05T10:13:20.703Z,12.13
2022-09-05T10:16:46.131Z,3.10
2022-09-05T10:20:10.413Z,2.93
2022-09-05T10:23:07.482Z,2.80
2022-09-05T10:26:22.136Z,2.80
2022-09-05T10:29:15.724Z,2.37
2022-09-05T10:35:11.771Z,2.60
2022-09-05T10:35:14.307Z,2.13
2022-09-05T10:37:54.911Z,2.00
2022-09-05T10:40:26.618Z,2.77
2022-09-05T10:43:00.827Z,2.47
2022-09-05T10:45:44.164Z,2.30
2022-09-05T10:48:24.487Z,2.33
2022-09-05T10:51:01.646Z,2.40
2022-09-05T10:53:40.260Z,2.70
2022-09-05T10:56:14.910Z,2.40
2022-09-05T11:01:43.181Z,2.00
2022-09-05T11:02:23.065Z,2.40
2022-09-05T11:05:08.158Z,2.17
2022-09-05T11:07:42.845Z,2.23
2022-09-05T11:10:17.334Z,2.10
2022-09-05T11:13:17.211Z,2.10
2022-09-05T11:16:03.712Z,2.23
2022-09-05T11:18:57.249Z,2.67
2022-09-05T11:22:04.059Z,2.33
2022-09-05T11:24:51.115Z,3.80
2022-09-05T11:27:33.243Z,2.10
2022-09-05T11:30:07.023Z,1.90
2022-09-05T11:39:51.369Z,2.30
2022-09-05T11:39:58.407Z,2.30
2022-09-05T11:40:31.292Z,2.20
2022-09-05T11:43:14.091Z,2.30
2022-09-05T11:46:34.585Z,2.43
2022-09-05T11:49:45.382Z,2.20
2022-09-05T11:52:55.095Z,2.67
2022-09-05T11:56:08.530Z,2.27
2022-09-05T11:59:33.643Z,2.30
2022-09-05T12:02:34.554Z,2.10
2022-09-05T12:05:49.080Z,2.50
2022-09-05T12:08:32.518Z,2.43
2022-09-05T12:11:22.495Z,1.90
2022-09-05T12:14:13.697Z,2.23
2022-09-05T12:17:10.206Z,2.57
2022-09-05T12:19:54.770Z,2.17
2022-09-05T12:22:31.598Z,2.10
2022-09-05T12:27:41.392Z,2.10
2022-09-05T12:29:26.735Z,2.57
2022-09-05T12:32:36.478Z,2.70
2022-09-05T12:36:07.238Z,2.00
2022-09-05T12:40:53.322Z,2.80
2022-09-05T12:41:37.434Z,2.10
2022-09-05T12:44:39.118Z,2.70
2022-09-05T12:45:59.568Z,3.60
2022-09-05T12:48:38.708Z,2.70
2022-09-05T12:51:18.050Z,3.00
2022-09-05T12:54:09.400Z,2.40
2022-09-05T13:01:34.973Z,2.50
2022-09-05T13:03:05.379Z,2.10
2022-09-05T13:03:08.605Z,2.23
2022-09-05T13:05:58.737Z,2.03
2022-09-05T13:08:40.005Z,2.10
2022-09-05T13:14:49.343Z,1.90
2022-09-05T13:14:54.649Z,2.43
2022-09-05T13:16:57.046Z,2.00
2022-09-05T13:19:37.348Z,2.20
2022-09-05T13:22:08.690Z,1.70
2022-09-05T13:24:41.464Z,1.93
2022-09-05T13:27:15.058Z,2.23
2022-09-05T13:30:51.833Z,1.70
2022-09-05T13:37:54.634Z,1.70
2022-09-05T13:38:06.302Z,2.43
2022-09-05T13:38:50.298Z,2.00
2022-09-05T13:41:28.334Z,1.77
2022-09-05T13:44:00.258Z,2.13
2022-09-05T13:46:58.876Z,2.03
2022-09-05T13:49:37.204Z,2.00
2022-09-05T13:52:28.037Z,2.20
2022-09-05T13:55:13.897Z,1.77
2022-09-05T13:57:47.392Z,2.00
2022-09-05T14:00:50.993Z,2.40
2022-09-05T14:08:23.091Z,1.70
2022-09-05T14:11:45.036Z,1.93
2022-09-05T14:17:51.120Z,2.30
2022-09-05T14:20:38.306Z,2.80
2022-09-05T14:23:15.439Z,3.00
2022-09-05T14:25:49.927Z,1.87
2022-09-05T14:28:27.705Z,2.30
2022-09-05T14:32:59.025Z,2.00
2022-09-05T14:37:41.132Z,2.60
2022-09-05T14:37:44.462Z,1.97
2022-09-05T14:41:16.612Z,2.00
2022-09-05T14:44:37.824Z,4.80
2022-09-05T14:48:02.516Z,2.33
2022-09-05T14:50:56.457Z,1.97
2022-09-05T14:57:02.104Z,2.97
2022-09-05T15:02:43.609Z,3.17
2022-09-05T15:02:51.203Z,2.57
2022-09-05T15:05:21.731Z,2.47
2022-09-05T15:07:58.658Z,2.30
2022-09-05T15:12:19.834Z,2.97
2022-09-05T15:13:25.854Z,3.17
2022-09-05T15:16:06.890Z,2.87
2022-09-05T15:18:39.001Z,2.50
2022-09-05T15:21:33.243Z,2.37
2022-09-05T15:24:17.167Z,2.40
2022-09-05T15:26:52.983Z,2.70
2022-09-05T15:29:27.037Z,3.57
2022-09-05T15:32:15.174Z,4.73
2022-09-05T15:34:43.686Z,7.57
2022-09-05T15:37:29.829Z,8.27
2022-09-05T15:40:23.753Z,7.83
2022-09-05T15:42:56.987Z,8.97
2022-09-05T15:45:31.669Z,7.13
2022-09-05T15:48:09.425Z,6.67
2022-09-05T15:50:45.820Z,6.47
2022-09-05T15:53:23.441Z,6.00
2022-09-05T15:56:00.910Z,6.57
2022-09-05T15:58:53.085Z,5.33
2022-09-05T16:01:30.511Z,4.97
2022-09-05T16:07:04.116Z,4.17
2022-09-05T16:10:37.268Z,4.73
2022-09-05T16:10:39.375Z,4.90
2022-09-05T16:12:52.842Z,4.80
2022-09-05T16:17:33.678Z,3.73
2022-09-05T16:23:19.449Z,4.50
2022-09-05T16:23:25.662Z,4.33
2022-09-05T16:24:06.424Z,3.80
2022-09-05T16:26:42.772Z,3.77
2022-09-05T16:29:23.861Z,3.20
2022-09-05T16:32:11.889Z,3.37
2022-09-05T16:34:54.205Z,3.83
2022-09-05T16:37:30.039Z,3.40
2022-09-05T16:40:08.011Z,3.27
2022-09-05T16:42:47.122Z,3.80
2022-09-05T16:45:31.220Z,3.87
2022-09-05T16:48:14.040Z,4.07
2022-09-05T16:50:50.569Z,3.43
2022-09-05T16:53:58.468Z,3.07
2022-09-05T16:56:24.186Z,2.77
2022-09-05T16:58:56.358Z,2.50
2022-09-05T17:01:54.873Z,2.70
2022-09-05T17:05:04.757Z,3.00
2022-09-05T17:08:03.608Z,3.40
2022-09-05T17:10:44.309Z,3.27
2022-09-05T17:13:41.508Z,3.23
2022-09-05T17:16:20.901Z,3.10
2022-09-05T17:18:52.704Z,2.90
2022-09-05T17:21:30.015Z,2.47
2022-09-05T17:29:16.841Z,2.70
2022-09-05T17:29:25.746Z,3.20
2022-09-05T17:33:00.621Z,3.03
2022-09-05T17:35:42.959Z,2.90
2022-09-05T17:39:06.304Z,3.20
2022-09-05T17:41:57.682Z,2.80
2022-09-05T17:44:31.150Z,3.80
2022-09-05T17:47:15.227Z,3.80
2022-09-05T17:49:46.209Z,3.20
2022-09-05T17:52:24.803Z,3.70
2022-09-05T17:54:56.352Z,4.13
2022-09-05T17:57:41.286Z,4.37
2022-09-05T18:01:00.958Z,4.10
2022-09-05T18:04:15.853Z,4.50
2022-09-05T18:07:00.373Z,4.20
2022-09-05T18:10:07.621Z,4.47
2022-09-05T18:13:13.979Z,6.33
2022-09-05T18:16:10.959Z,5.37
2022-09-05T18:19:28.146Z,8.00
2022-09-05T18:21:50.937Z,9.40
2022-09-05T18:27:37.836Z,9.43
2022-09-05T18:33:55.601Z,6.90
2022-09-05T18:36:34.670Z,9.23
2022-09-05T18:39:48.494Z,9.60
2022-09-05T18:42:26.397Z,9.20
2022-09-05T18:45:15.502Z,10.17
2022-09-05T18:47:57.203Z,10.50
2022-09-05T18:50:32.428Z,9.83
2022-09-05T18:53:10.497Z,11.07
2022-09-05T18:56:13.711Z,10.33
2022-09-05T18:58:52.831Z,10.47
2022-09-05T19:01:28.830Z,10.47
2022-09-05T19:04:03.468Z,13.67
2022-09-05T19:06:37.905Z,10.93
2022-09-05T19:09:11.278Z,9.80
2022-09-05T19:11:53.515Z,9.63
2022-09-05T19:14:42.315Z,9.73
2022-09-05T19:17:19.368Z,11.13
2022-09-05T19:20:33.384Z,11.03
2022-09-05T19:23:09.970Z,13.50
2022-09-05T19:25:43.886Z,11.67
2022-09-05T19:33:50.483Z,11.47
2022-09-05T19:36:52.702Z,12.60
2022-09-05T19:37:06.831Z,14.73
2022-09-05T19:37:27.480Z,11.40
2022-09-05T19:44:41.334Z,9.00
2022-09-05T19:47:34.076Z,9.00
2022-09-05T19:47:39.306Z,11.47
2022-09-05T19:48:26.836Z,12.30
2022-09-05T19:50:56.863Z,9.77
2022-09-05T19:53:26.766Z,13.30
2022-09-05T19:55:55.452Z,10.80
2022-09-05T19:58:25.081Z,11.40
2022-09-05T20:01:05.364Z,9.20
2022-09-05T20:03:39.488Z,8.10
2022-09-05T20:06:26.794Z,8.47
2022-09-05T20:09:19.714Z,8.70
2022-09-05T20:11:50.626Z,10.70
2022-09-05T20:14:22.974Z,9.17
2022-09-05T20:16:55.931Z,8.43
2022-09-05T20:19:34.070Z,8.23
2022-09-05T20:22:47.029Z,7.43
2022-09-05T20:25:34.737Z,8.40
2022-09-05T20:28:09.604Z,8.30
2022-09-05T20:30:42.766Z,6.27
2022-09-05T20:33:20.309Z,7.10
2022-09-05T20:39:32.719Z,6.10
2022-09-05T20:43:15.284Z,7.33
2022-09-05T20:43:25.329Z,7.47
2022-09-05T20:44:24.818Z,7.30
2022-09-05T20:52:13.849Z,6.10
2022-09-05T20:54:16.968Z,7.23
2022-09-05T20:54:22.583Z,8.20
2022-09-05T20:55:42.376Z,7.80
2022-09-05T20:58:15.760Z,8.17
2022-09-05T21:01:20.176Z,7.50
2022-09-05T21:03:40.939Z,6.50
2022-09-05T21:06:33.973Z,6.43
2022-09-05T21:09:22.535Z,5.67
2022-09-05T21:11:55.496Z,5.00
2022-09-05T21:14:28.621Z,4.47
2022-09-05T21:17:04.593Z,5.70
2022-09-05T21:19:53.160Z,5.30
2022-09-05T21:22:24.715Z,5.07
2022-09-05T21:25:43.837Z,4.10
2022-09-05T21:28:36.282Z,6.00
2022-09-05T21:31:16.101Z,5.60
2022-09-05T21:33:46.373Z,6.07
2022-09-05T21:36:16.686Z,6.27
2022-09-05T21:38:45.444Z,5.40
2022-09-05T21:41:17.815Z,6.00
2022-09-05T21:47:34.207Z,5.93
2022-09-05T21:47:41.220Z,5.43
2022-09-05T21:49:31.329Z,4.60
2022-09-05T21:52:04.284Z,4.50
2022-09-05T21:58:44.253Z,4.37
2022-09-05T21:59:24.478Z,4.13
2022-09-05T22:00:16.200Z,3.80
2022-09-05T22:02:49.806Z,4.20
2022-09-05T22:05:20.196Z,4.20
2022-09-05T22:07:53.374Z,4.00
2022-09-05T22:10:22.473Z,4.90
2022-09-05T22:13:05.014Z,4.07
2022-09-05T22:15:33.510Z,4.47
2022-09-05T22:18:26.973Z,4.77
2022-09-05T22:21:29.609Z,3.90
2022-09-05T22:23:45.340Z,3.97
2022-09-05T22:26:15.702Z,3.53
2022-09-05T22:28:48.900Z,4.40
2022-09-05T22:31:17.837Z,3.60
2022-09-05T22:33:50.845Z,3.77
2022-09-05T22:36:19.959Z,4.23
2022-09-05T22:38:48.394Z,4.00
2022-09-05T22:41:17.158Z,3.80
2022-09-05T22:43:46.358Z,3.93
2022-09-05T22:46:16.595Z,4.23
2022-09-05T22:48:45.132Z,4.77
2022-09-05T22:51:16.569Z,4.10
2022-09-05T22:53:45.142Z,4.33
2022-09-05T22:56:13.603Z,4.23
2022-09-05T22:58:44.942Z,4.57
2022-09-05T23:01:13.708Z,5.10
2022-09-05T23:03:42.186Z,4.40
2022-09-05T23:06:11.943Z,4.80
2022-09-05T23:08:41.749Z,4.07
2022-09-05T23:11:12.246Z,4.13
2022-09-05T23:13:41.430Z,4.30
2022-09-05T23:16:10.879Z,3.10
2022-09-05T23:18:39.592Z,4.30
2022-09-05T23:21:10.355Z,4.20
2022-09-05T23:23:39.793Z,3.90
2022-09-05T23:26:13.652Z,3.83
2022-09-05T23:28:43.785Z,3.90
2022-09-05T23:31:13.488Z,3.60
2022-09-05T23:33:42.906Z,3.50
2022-09-05T23:36:14.110Z,4.00
2022-09-05T23:38:43.493Z,4.30
2022-09-05T23:41:15.898Z,4.10
2022-09-05T23:43:44.389Z,4.30
2022-09-05T23:46:12.926Z,3.97
2022-09-05T23:48:41.701Z,3.93
2022-09-05T23:51:12.115Z,3.53
2022-09-05T23:53:41.496Z,3.33
2022-09-05T23:56:12.598Z,3.57
2022-09-05T23:58:41.476Z,3.90
